createdAt,value
2017-11-30T00:01:02.741Z,99985.20
2017-11-30T00:03:30.273Z,99982.30
2017-11-30T00:05:57.876Z,99978.47
2017-11-30T00:08:25.423Z,99974.31
2017-11-30T00:10:52.946Z,99978.21
2017-11-30T00:13:20.630Z,99977.73
2017-11-30T00:15:48.178Z,99974.91
2017-11-30T00:18:15.720Z,99975.59
2017-11-30T00:20:43.315Z,99980.55
2017-11-30T00:23:10.842Z,99982.87
2017-11-30T00:25:38.407Z,99983.30
2017-11-30T00:28:05.950Z,99980.58
2017-11-30T00:30:33.532Z,99973.91
2017-11-30T00:33:01.081Z,99969.64
2017-11-30T00:35:28.633Z,99960.83
2017-11-30T00:37:56.199Z,99960.95
2017-11-30T00:40:23.736Z,99960.22
2017-11-30T00:43:04.218Z,99959.15
2017-11-30T00:45:31.784Z,99968.50
2017-11-30T00:47:59.332Z,99962.39
2017-11-30T00:50:26.994Z,99963.55
2017-11-30T00:52:54.556Z,99953.28
2017-11-30T00:55:22.112Z,99948.89
2017-11-30T00:57:49.715Z,99939.89
2017-11-30T01:00:17.423Z,99941.34
2017-11-30T01:02:44.967Z,99931.26
2017-11-30T01:05:12.533Z,99926.55
2017-11-30T01:07:40.100Z,99913.86
2017-11-30T01:10:07.648Z,99918.18
2017-11-30T01:12:35.165Z,99918.33
2017-11-30T01:15:02.737Z,99922.11
2017-11-30T01:17:30.765Z,99922.48
2017-11-30T01:19:58.301Z,99924.03
2017-11-30T01:22:25.867Z,99920.73
2017-11-30T01:24:53.540Z,99916.98
2017-11-30T01:27:21.091Z,99916.72
2017-11-30T01:29:48.639Z,99920.39
2017-11-30T01:32:16.235Z,99915.50
2017-11-30T01:34:43.767Z,99921.15
2017-11-30T01:37:11.300Z,99919.71
2017-11-30T01:39:38.867Z,99917.20
2017-11-30T01:42:06.413Z,99915.72
2017-11-30T01:44:33.972Z,99914.30
2017-11-30T01:47:01.600Z,99920.01
2017-11-30T01:49:29.135Z,99912.07
2017-11-30T01:51:56.663Z,99913.47
2017-11-30T01:54:24.313Z,99914.30
2017-11-30T01:56:51.886Z,99909.59
2017-11-30T01:59:19.433Z,99900.33
2017-11-30T02:01:47.113Z,99900.24
2017-11-30T02:04:14.647Z,99896.89
2017-11-30T02:06:42.174Z,99895.14
2017-11-30T02:09:09.768Z,99897.73
2017-11-30T02:11:37.309Z,99893.66
2017-11-30T02:14:04.829Z,99897.36
2017-11-30T02:16:32.505Z,99892.21
2017-11-30T02:19:00.046Z,99899.48
2017-11-30T02:21:27.604Z,99897.60
2017-11-30T02:23:55.260Z,99890.83
2017-11-30T02:26:22.918Z,99888.33
2017-11-30T02:28:50.496Z,99887.41
2017-11-30T02:31:18.184Z,99884.92
2017-11-30T02:33:45.759Z,99901.56
2017-11-30T02:36:13.315Z,99895.66
2017-11-30T02:38:42.785Z,99889.38
2017-11-30T02:41:10.435Z,99882.72
2017-11-30T02:43:37.983Z,99884.14
2017-11-30T02:46:05.571Z,99877.42
2017-11-30T02:48:33.146Z,99881.90
2017-11-30T02:51:00.760Z,99882.27
2017-11-30T02:53:28.455Z,99874.24
2017-11-30T02:55:56.029Z,99871.05
2017-11-30T02:58:23.640Z,99880.98
2017-11-30T03:00:51.362Z,99875.59
2017-11-30T03:03:18.927Z,99870.19
2017-11-30T03:05:46.488Z,99866.61
2017-11-30T03:08:14.094Z,99864.98
2017-11-30T03:10:41.685Z,99866.08
2017-11-30T03:13:09.227Z,99859.95
2017-11-30T03:15:36.823Z,99858.41
2017-11-30T03:18:04.361Z,99861.94
2017-11-30T03:20:33.909Z,99866.88
2017-11-30T03:23:01.479Z,99865.41
2017-11-30T03:25:29.164Z,99862.74
2017-11-30T03:27:56.706Z,99859.52
2017-11-30T03:30:24.258Z,99858.64
2017-11-30T03:32:51.843Z,99862.27
2017-11-30T03:35:19.541Z,99856.67
2017-11-30T03:37:48.035Z,99861.64
2017-11-30T03:40:15.618Z,99850.02
2017-11-30T03:42:43.194Z,99849.73
2017-11-30T03:45:10.904Z,99844.66
2017-11-30T03:47:38.443Z,99855.60
2017-11-30T03:50:05.987Z,99851.08
2017-11-30T03:52:33.555Z,99844.25
2017-11-30T03:55:01.186Z,99848.01
2017-11-30T03:57:28.752Z,99851.77
2017-11-30T03:59:57.997Z,99848.50
2017-11-30T04:02:25.673Z,99844.11
2017-11-30T04:04:53.235Z,99838.48
2017-11-30T04:07:20.778Z,99841.60
2017-11-30T04:09:49.296Z,99832.26
2017-11-30T04:12:16.947Z,99835.25
2017-11-30T04:14:44.487Z,99831.66
2017-11-30T04:17:12.151Z,99827.05
2017-11-30T04:19:39.687Z,99830.72
2017-11-30T04:22:07.231Z,99827.39
2017-11-30T04:24:34.786Z,99827.94
2017-11-30T04:27:02.347Z,99829.70
2017-11-30T04:29:29.915Z,99822.32
2017-11-30T04:31:57.504Z,99817.51
2017-11-30T04:34:25.048Z,99818.84
2017-11-30T04:36:52.588Z,99815.94
2017-11-30T04:39:20.152Z,99824.52
2017-11-30T04:41:47.713Z,99820.81
2017-11-30T04:44:15.258Z,99816.02
2017-11-30T04:46:42.854Z,99818.19
2017-11-30T04:49:10.395Z,99815.47
2017-11-30T04:51:38.877Z,99804.51
2017-11-30T04:54:06.486Z,99807.72
2017-11-30T04:56:34.017Z,99809.44
2017-11-30T04:59:01.583Z,99808.86
2017-11-30T05:01:29.167Z,99813.73
2017-11-30T05:03:56.719Z,99802.98
2017-11-30T05:06:24.264Z,99811.26
2017-11-30T05:08:51.844Z,99810.27
2017-11-30T05:11:19.400Z,99808.95
2017-11-30T05:13:46.993Z,99809.96
2017-11-30T05:16:14.540Z,99802.87
2017-11-30T05:18:42.066Z,99808.06
2017-11-30T05:21:09.624Z,99806.59
2017-11-30T05:23:37.299Z,99804.75
2017-11-30T05:26:04.826Z,99807.11
2017-11-30T05:28:32.405Z,99800.94
2017-11-30T05:30:59.983Z,99802.98
2017-11-30T05:33:27.516Z,99799.06
2017-11-30T05:35:55.047Z,99797.72
2017-11-30T05:38:22.605Z,99797.75
2017-11-30T05:40:50.204Z,99800.30
2017-11-30T05:43:17.782Z,99794.77
2017-11-30T05:45:45.322Z,99798.84
2017-11-30T05:48:12.862Z,99786.37
2017-11-30T05:50:40.451Z,99780.96
2017-11-30T05:53:07.991Z,99784.22
2017-11-30T05:55:35.524Z,99784.05
2017-11-30T05:58:03.235Z,99778.96
2017-11-30T06:00:30.792Z,99784.59
2017-11-30T06:02:58.334Z,99775.60
2017-11-30T06:05:26.063Z,99770.98
2017-11-30T06:07:53.589Z,99774.75
2017-11-30T06:10:21.115Z,99779.08
2017-11-30T06:12:48.697Z,99771.64
2017-11-30T06:15:16.423Z,99775.78
2017-11-30T06:17:43.952Z,99776.30
2017-11-30T06:20:11.491Z,99778.06
2017-11-30T06:22:39.231Z,99774.74
2017-11-30T06:25:06.790Z,99769.92
2017-11-30T06:27:34.343Z,99770.14
2017-11-30T06:30:01.867Z,99776.33
2017-11-30T06:32:29.539Z,99772.66
2017-11-30T06:34:57.066Z,99773.36
2017-11-30T06:37:24.595Z,99772.79
2017-11-30T06:39:52.152Z,99769.50
2017-11-30T06:42:19.724Z,99763.27
2017-11-30T06:44:47.394Z,99762.78
2017-11-30T06:47:14.919Z,99758.88
2017-11-30T06:49:42.447Z,99758.25
2017-11-30T06:52:10.026Z,99759.45
2017-11-30T06:54:37.547Z,99757.72
2017-11-30T06:57:05.082Z,99765.21
2017-11-30T06:59:32.835Z,99762.70
2017-11-30T07:02:00.360Z,99766.11
2017-11-30T07:04:27.886Z,99764.41
2017-11-30T07:06:55.430Z,99762.33
2017-11-30T07:09:22.979Z,99766.13
2017-11-30T07:11:50.515Z,99770.59
2017-11-30T07:14:18.101Z,99764.27
2017-11-30T07:16:45.623Z,99767.69
2017-11-30T07:19:13.141Z,99766.38
2017-11-30T07:21:40.679Z,99767.37
2017-11-30T07:24:08.194Z,99764.93
2017-11-30T07:26:35.756Z,99774.31
2017-11-30T07:29:03.274Z,99769.91
2017-11-30T07:31:30.794Z,99781.40
2017-11-30T07:33:58.557Z,99786.23
2017-11-30T07:36:26.075Z,99778.28
2017-11-30T07:38:53.594Z,99775.18
2017-11-30T07:41:21.144Z,99781.13
2017-11-30T07:43:48.665Z,99782.95
2017-11-30T07:46:16.422Z,99778.88
2017-11-30T07:48:43.934Z,99782.82
2017-11-30T07:51:11.454Z,99779.77
2017-11-30T07:53:39.030Z,99786.75
2017-11-30T07:56:06.550Z,99786.37
2017-11-30T07:58:34.078Z,99786.39
2017-11-30T08:01:01.768Z,99783.27
2017-11-30T08:03:29.286Z,99781.84
2017-11-30T08:05:56.796Z,99781.18
2017-11-30T08:08:24.368Z,99785.63
2017-11-30T08:10:51.881Z,99786.92
2017-11-30T08:13:19.407Z,99786.12
2017-11-30T08:15:46.955Z,99786.17
2017-11-30T08:18:14.559Z,99787.66
2017-11-30T08:20:42.083Z,99793.96
2017-11-30T08:23:09.593Z,99790.41
2017-11-30T08:25:37.168Z,99784.36
2017-11-30T08:28:04.727Z,99789.76
2017-11-30T08:30:32.294Z,99789.23
2017-11-30T08:32:59.814Z,99791.84
2017-11-30T08:35:27.350Z,99792.09
2017-11-30T08:37:54.952Z,99790.20
2017-11-30T08:40:22.487Z,99791.59
2017-11-30T08:42:50.039Z,99789.50
2017-11-30T08:45:17.693Z,99787.94
2017-11-30T08:47:45.317Z,99790.39
2017-11-30T08:50:12.836Z,99786.35
2017-11-30T08:52:40.395Z,99788.70
2017-11-30T08:55:07.972Z,99792.56
2017-11-30T08:57:35.627Z,99788.83
2017-11-30T09:00:03.174Z,99790.92
2017-11-30T09:02:30.693Z,99788.14
2017-11-30T09:04:58.299Z,99791.45
2017-11-30T09:07:25.810Z,99782.40
2017-11-30T09:09:53.330Z,99785.82
2017-11-30T09:12:20.902Z,99786.71
2017-11-30T09:14:48.428Z,99783.83
2017-11-30T09:17:15.950Z,99778.85
2017-11-30T09:19:43.603Z,99784.12
2017-11-30T09:22:11.159Z,99778.38
2017-11-30T09:24:38.678Z,99776.39
2017-11-30T09:27:06.251Z,99776.81
2017-11-30T09:29:33.771Z,99769.87
2017-11-30T09:32:01.307Z,99779.68
2017-11-30T09:34:29.017Z,99778.77
2017-11-30T09:36:56.583Z,99780.08
2017-11-30T09:39:24.119Z,99775.09
2017-11-30T09:41:51.695Z,99776.66
2017-11-30T09:44:19.231Z,99773.13
2017-11-30T09:46:46.770Z,99781.64
2017-11-30T09:49:14.454Z,99779.92
2017-11-30T09:51:42.915Z,99779.00
2017-11-30T09:54:10.467Z,99774.71
2017-11-30T09:56:38.067Z,99771.81
2017-11-30T09:59:05.620Z,99771.43
2017-11-30T10:01:33.154Z,99765.66
2017-11-30T10:04:00.835Z,99760.81
2017-11-30T10:06:28.370Z,99761.20
2017-11-30T10:08:55.952Z,99760.52
2017-11-30T10:11:23.535Z,99759.22
2017-11-30T10:13:51.061Z,99751.50
2017-11-30T10:16:18.586Z,99753.68
2017-11-30T10:18:46.154Z,99748.87
2017-11-30T10:21:13.671Z,99753.48
2017-11-30T10:23:41.183Z,99747.30
2017-11-30T10:26:08.739Z,99746.23
2017-11-30T10:28:36.288Z,99735.78
2017-11-30T10:31:03.802Z,99737.98
2017-11-30T10:33:31.359Z,99736.41
2017-11-30T10:35:58.874Z,99737.61
2017-11-30T10:38:26.393Z,99741.37
2017-11-30T10:40:53.934Z,99735.39
2017-11-30T10:43:21.451Z,99734.37
2017-11-30T10:45:49.250Z,99743.00
2017-11-30T10:48:16.761Z,99735.17
2017-11-30T10:50:44.270Z,99734.34
2017-11-30T10:53:11.923Z,99738.93
2017-11-30T10:55:39.443Z,99733.81
2017-11-30T10:58:06.973Z,99733.67
2017-11-30T11:00:34.571Z,99733.80
2017-11-30T11:03:02.078Z,99732.91
2017-11-30T11:05:29.604Z,99727.25
2017-11-30T11:07:57.163Z,99728.83
2017-11-30T11:10:24.668Z,99727.16
2017-11-30T11:12:52.245Z,99718.52
2017-11-30T11:15:19.758Z,99723.77
2017-11-30T11:17:47.277Z,99719.28
2017-11-30T11:20:14.819Z,99721.09
2017-11-30T11:22:42.340Z,99721.70
2017-11-30T11:25:09.913Z,99715.31
2017-11-30T11:27:37.432Z,99718.80
2017-11-30T11:30:04.953Z,99720.17
2017-11-30T11:32:32.639Z,99719.48
2017-11-30T11:35:00.160Z,99717.27
2017-11-30T11:37:27.689Z,99721.86
2017-11-30T11:39:55.254Z,99712.33
2017-11-30T11:42:22.762Z,99713.44
2017-11-30T11:44:50.282Z,99707.38
2017-11-30T11:47:17.966Z,99706.14
2017-11-30T11:49:45.474Z,99704.56
2017-11-30T11:52:12.999Z,99705.05
2017-11-30T11:54:40.609Z,99703.35
2017-11-30T11:57:08.161Z,99693.66
2017-11-30T11:59:35.683Z,99700.90
2017-11-30T12:02:03.246Z,99701.51
2017-11-30T12:04:30.758Z,99700.33
2017-11-30T12:06:58.302Z,99698.33
2017-11-30T12:09:25.825Z,99693.69
2017-11-30T12:11:53.360Z,99695.45
2017-11-30T12:14:20.886Z,99688.67
2017-11-30T12:16:48.428Z,99699.69
2017-11-30T12:19:15.938Z,99693.11
2017-11-30T12:21:43.492Z,99696.58
2017-11-30T12:24:11.073Z,99688.36
2017-11-30T12:26:38.590Z,99692.78
2017-11-30T12:29:06.097Z,99679.79
2017-11-30T12:31:33.653Z,99685.78
2017-11-30T12:34:01.163Z,99681.55
2017-11-30T12:36:28.672Z,99680.94
2017-11-30T12:38:56.370Z,99681.13
2017-11-30T12:41:23.886Z,99677.14
2017-11-30T12:43:51.397Z,99673.98
2017-11-30T12:46:18.959Z,99677.81
2017-11-30T12:48:46.466Z,99673.78
2017-11-30T12:51:13.969Z,99676.80
2017-11-30T12:53:41.515Z,99667.39
2017-11-30T12:56:09.055Z,99667.61
2017-11-30T12:58:36.606Z,99670.41
2017-11-30T13:01:04.121Z,99672.39
2017-11-30T13:03:31.657Z,99677.93
2017-11-30T13:05:59.234Z,99679.98
2017-11-30T13:08:26.764Z,99683.00
2017-11-30T13:10:54.332Z,99688.14
2017-11-30T13:13:21.863Z,99689.59
2017-11-30T13:15:49.413Z,99687.14
2017-11-30T13:18:16.928Z,99685.39
2017-11-30T13:20:44.599Z,99685.34
2017-11-30T13:23:12.120Z,99679.48
2017-11-30T13:25:39.656Z,99679.11
2017-11-30T13:28:07.348Z,99680.45
2017-11-30T13:30:34.858Z,99677.30
2017-11-30T13:33:02.382Z,99675.75
2017-11-30T13:35:29.964Z,99682.33
2017-11-30T13:37:57.477Z,99676.13
2017-11-30T13:40:25.850Z,99678.33
2017-11-30T13:42:53.416Z,99669.71
2017-11-30T13:45:20.934Z,99675.02
2017-11-30T13:47:48.441Z,99675.61
2017-11-30T13:50:16.040Z,99672.84
2017-11-30T13:52:43.781Z,99672.31
2017-11-30T13:55:11.292Z,99676.58
2017-11-30T13:57:38.806Z,99684.56
2017-11-30T14:00:06.339Z,99681.13
2017-11-30T14:02:33.901Z,99687.57
2017-11-30T14:05:01.404Z,99688.22
2017-11-30T14:07:28.925Z,99686.44
2017-11-30T14:09:56.609Z,99688.00
2017-11-30T14:12:24.127Z,99690.43
2017-11-30T14:14:51.632Z,99694.44
2017-11-30T14:17:19.161Z,99696.55
2017-11-30T14:19:46.667Z,99692.87
2017-11-30T14:22:14.328Z,99697.06
2017-11-30T14:24:41.839Z,99701.53
2017-11-30T14:27:09.337Z,99702.84
2017-11-30T14:29:37.056Z,99703.31
2017-11-30T14:32:04.561Z,99702.02
2017-11-30T14:34:32.091Z,99705.70
2017-11-30T14:36:59.776Z,99706.42
2017-11-30T14:39:27.288Z,99706.97
2017-11-30T14:41:54.804Z,99702.38
2017-11-30T14:44:22.357Z,99704.33
2017-11-30T14:46:49.878Z,99716.05
2017-11-30T14:49:17.441Z,99714.07
2017-11-30T14:51:44.953Z,99718.17
2017-11-30T14:54:12.517Z,99717.24
2017-11-30T14:56:40.026Z,99716.58
2017-11-30T14:59:07.540Z,99718.13
2017-11-30T15:01:35.121Z,99719.70
2017-11-30T15:04:02.628Z,99724.69
2017-11-30T15:06:30.145Z,99721.42
2017-11-30T15:08:57.825Z,99722.09
2017-11-30T15:11:25.720Z,99722.48
2017-11-30T15:13:53.242Z,99721.92
2017-11-30T15:16:20.801Z,99720.08
2017-11-30T15:18:48.360Z,99730.47
2017-11-30T15:21:15.864Z,99729.67
2017-11-30T15:23:43.372Z,99727.84
2017-11-30T15:26:10.941Z,99730.86
2017-11-30T15:28:38.448Z,99727.59
2017-11-30T15:31:05.961Z,99726.04
2017-11-30T15:33:33.497Z,99728.79
2017-11-30T15:36:01.143Z,99736.92
2017-11-30T15:38:28.669Z,99744.52
2017-11-30T15:40:56.175Z,99738.25
2017-11-30T15:43:23.709Z,99739.02
2017-11-30T15:45:51.412Z,99750.97
2017-11-30T15:48:18.921Z,99758.28
2017-11-30T15:50:46.425Z,99759.16
2017-11-30T15:53:13.961Z,99764.34
2017-11-30T15:55:41.470Z,99773.14
2017-11-30T15:58:09.186Z,99773.01
2017-11-30T16:00:36.693Z,99775.62
2017-11-30T16:03:04.200Z,99775.06
2017-11-30T16:05:31.740Z,99774.83
2017-11-30T16:07:59.249Z,99769.31
2017-11-30T16:10:26.789Z,99783.45
2017-11-30T16:12:54.308Z,99779.41
2017-11-30T16:15:21.959Z,99779.84
2017-11-30T16:17:49.761Z,99781.58
2017-11-30T16:20:17.264Z,99783.97
2017-11-30T16:22:44.908Z,99781.34
2017-11-30T16:25:12.412Z,99774.78
2017-11-30T16:27:39.928Z,99787.00
2017-11-30T16:30:07.539Z,99790.82
2017-11-30T16:32:35.074Z,99787.52
2017-11-30T16:35:02.604Z,99788.50
2017-11-30T16:37:30.156Z,99792.29
2017-11-30T16:39:57.684Z,99795.45
2017-11-30T16:42:25.236Z,99800.48
2017-11-30T16:44:52.749Z,99796.25
2017-11-30T16:47:20.289Z,99798.40
2017-11-30T16:49:47.965Z,99794.61
2017-11-30T16:52:15.499Z,99793.19
2017-11-30T16:54:43.050Z,99797.79
2017-11-30T16:57:10.598Z,99802.09
2017-11-30T16:59:38.146Z,99800.39
2017-11-30T17:02:06.112Z,99801.95
2017-11-30T17:04:33.639Z,99808.52
2017-11-30T17:07:01.196Z,99809.90
2017-11-30T17:09:28.704Z,99810.31
2017-11-30T17:11:56.213Z,99819.63
2017-11-30T17:14:23.759Z,99825.03
2017-11-30T17:16:51.345Z,99822.06
2017-11-30T17:19:18.872Z,99818.69
2017-11-30T17:21:46.389Z,99831.01
2017-11-30T17:24:13.934Z,99823.55
2017-11-30T17:26:41.474Z,99824.99
2017-11-30T17:29:09.122Z,99821.46
2017-11-30T17:31:36.638Z,99818.32
2017-11-30T17:34:04.158Z,99832.45
2017-11-30T17:36:31.901Z,99825.64
2017-11-30T17:38:59.436Z,99835.33
2017-11-30T17:41:26.958Z,99831.02
2017-11-30T17:43:54.617Z,99835.10
2017-11-30T17:46:23.064Z,99836.50
2017-11-30T17:48:57.091Z,99835.75
2017-11-30T17:51:24.641Z,99836.07
2017-11-30T17:53:52.157Z,99837.40
2017-11-30T17:56:19.861Z,99837.33
2017-11-30T17:58:47.385Z,99839.80
2017-11-30T18:01:14.902Z,99844.40
2017-11-30T18:03:42.444Z,99846.19
2017-11-30T18:06:09.961Z,99849.84
2017-11-30T18:08:37.676Z,99844.67
2017-11-30T18:11:05.200Z,99850.03
2017-11-30T18:13:32.755Z,99849.69
2017-11-30T18:16:00.376Z,99846.89
2017-11-30T18:18:27.889Z,99846.55
2017-11-30T18:20:55.423Z,99851.64
2017-11-30T18:23:22.932Z,99855.08
2017-11-30T18:25:50.511Z,99861.91
2017-11-30T18:28:18.029Z,99865.48
2017-11-30T18:30:45.553Z,99870.23
2017-11-30T18:33:13.125Z,99865.88
2017-11-30T18:35:40.665Z,99876.38
2017-11-30T18:38:08.192Z,99876.11
2017-11-30T18:40:35.776Z,99873.09
2017-11-30T18:43:03.305Z,99874.58
2017-11-30T18:45:30.817Z,99879.34
2017-11-30T18:47:58.380Z,99883.20
2017-11-30T18:50:25.902Z,99887.61
2017-11-30T18:52:53.422Z,99896.30
2017-11-30T18:55:21.198Z,99894.47
2017-11-30T18:57:48.715Z,99893.17
2017-11-30T19:00:16.230Z,99898.80
2017-11-30T19:02:43.802Z,99900.48
2017-11-30T19:05:11.316Z,99903.16
2017-11-30T19:07:38.843Z,99902.81
2017-11-30T19:10:06.527Z,99908.81
2017-11-30T19:12:34.044Z,99911.54
2017-11-30T19:15:01.559Z,99908.98
2017-11-30T19:17:29.109Z,99910.14
2017-11-30T19:19:56.691Z,99909.56
2017-11-30T19:22:24.205Z,99911.48
2017-11-30T19:24:51.739Z,99910.84
2017-11-30T19:27:19.286Z,99905.59
2017-11-30T19:29:46.805Z,99908.74
2017-11-30T19:32:14.581Z,99905.52
2017-11-30T19:34:42.102Z,99911.81
2017-11-30T19:37:09.608Z,99913.61
2017-11-30T19:39:37.204Z,99916.56
2017-11-30T19:42:04.776Z,99916.05
2017-11-30T19:44:32.340Z,99915.91
2017-11-30T19:46:59.895Z,99919.56
2017-11-30T19:49:27.455Z,99925.55
2017-11-30T19:51:55.003Z,99928.80
2017-11-30T19:54:22.580Z,99931.72
2017-11-30T19:56:50.210Z,99932.13
2017-11-30T19:59:17.741Z,99937.16
2017-11-30T20:01:45.397Z,99946.16
2017-11-30T20:04:12.911Z,99946.86
2017-11-30T20:06:40.428Z,99956.00
2017-11-30T20:09:08.185Z,99956.27
2017-11-30T20:11:35.695Z,99963.09
2017-11-30T20:14:03.219Z,99963.98
2017-11-30T20:16:30.805Z,99967.64
2017-11-30T20:18:58.350Z,99968.11
2017-11-30T20:21:25.928Z,99967.25
2017-11-30T20:23:53.589Z,99980.33
2017-11-30T20:26:21.119Z,99981.83
2017-11-30T20:28:48.655Z,99974.88
2017-11-30T20:31:16.201Z,99974.41
2017-11-30T20:33:43.707Z,99980.91
2017-11-30T20:36:11.257Z,99977.34
2017-11-30T20:38:38.767Z,99976.86
2017-11-30T20:41:06.460Z,99980.22
2017-11-30T20:43:33.997Z,99986.86
2017-11-30T20:46:01.521Z,99984.74
2017-11-30T20:48:29.071Z,99992.06
2017-11-30T20:50:56.735Z,99990.55
2017-11-30T20:53:24.246Z,99997.88
2017-11-30T20:55:51.775Z,100003.69
2017-11-30T20:58:19.335Z,100008.86
2017-11-30T21:00:46.955Z,100011.67
2017-11-30T21:03:14.524Z,100014.92
2017-11-30T21:05:42.045Z,100024.33
2017-11-30T21:08:09.568Z,100012.34
2017-11-30T21:10:37.252Z,100022.59
2017-11-30T21:13:04.780Z,100027.55
2017-11-30T21:15:32.311Z,100021.28
2017-11-30T21:17:59.899Z,100023.37
2017-11-30T21:20:27.427Z,100023.84
2017-11-30T21:22:54.953Z,100026.45
2017-11-30T21:25:22.644Z,100029.66
2017-11-30T21:27:50.165Z,100036.16
2017-11-30T21:30:17.684Z,100030.84
2017-11-30T21:32:45.233Z,100035.88
2017-11-30T21:35:12.826Z,100034.76
2017-11-30T21:37:40.374Z,100034.70
2017-11-30T21:40:07.893Z,100038.36
2017-11-30T21:42:35.457Z,100040.22
2017-11-30T21:45:03.041Z,100051.15
2017-11-30T21:47:30.565Z,100048.53
2017-11-30T21:49:58.097Z,100056.67
2017-11-30T21:52:25.682Z,100056.61
2017-11-30T21:54:53.224Z,100058.47
2017-11-30T21:57:20.739Z,100067.57
2017-11-30T21:59:48.411Z,100069.75
2017-11-30T22:02:15.956Z,100073.53
2017-11-30T22:04:43.488Z,100079.06
2017-11-30T22:07:11.149Z,100072.11
2017-11-30T22:09:38.676Z,100082.30
2017-11-30T22:12:06.221Z,100082.48
2017-11-30T22:14:33.790Z,100080.45
2017-11-30T22:17:01.394Z,100081.25
2017-11-30T22:19:28.929Z,100089.21
2017-11-30T22:21:56.514Z,100092.85
2017-11-30T22:24:24.073Z,100098.80
2017-11-30T22:26:51.616Z,100097.81
2017-11-30T22:29:19.193Z,100102.61
2017-11-30T22:31:46.734Z,100100.88
2017-11-30T22:34:14.280Z,100106.00
2017-11-30T22:36:41.890Z,100101.77
2017-11-30T22:39:09.441Z,100113.23
2017-11-30T22:41:36.968Z,100110.48
2017-11-30T22:44:04.529Z,100123.61
2017-11-30T22:46:32.068Z,100114.10
2017-11-30T22:48:59.749Z,100123.24
2017-11-30T22:51:27.293Z,100124.31
2017-11-30T22:53:54.835Z,100129.14
2017-11-30T22:56:22.505Z,100128.91
2017-11-30T22:58:50.046Z,100134.12
2017-11-30T23:01:17.621Z,100136.05
2017-11-30T23:03:45.216Z,100142.65
2017-11-30T23:06:12.752Z,100150.66
2017-11-30T23:08:40.276Z,100150.20
2017-11-30T23:11:07.946Z,100155.57
2017-11-30T23:13:35.476Z,100163.73
2017-11-30T23:16:02.997Z,100171.23
2017-11-30T23:18:30.597Z,100159.66
2017-11-30T23:20:58.138Z,100169.69
2017-11-30T23:23:25.688Z,100178.22
2017-11-30T23:25:53.276Z,100173.08
2017-11-30T23:28:20.838Z,100181.84
2017-11-30T23:30:48.450Z,100181.25
2017-11-30T23:33:16.004Z,100182.77
2017-11-30T23:35:43.604Z,100185.40
2017-11-30T23:38:11.171Z,100185.28
2017-11-30T23:40:38.704Z,100184.48
2017-11-30T23:43:06.368Z,100192.06
2017-11-30T23:45:33.900Z,100192.63
2017-11-30T23:48:01.432Z,100189.41
2017-11-30T23:50:29.101Z,100192.13
2017-11-30T23:52:56.663Z,100190.59
2017-11-30T23:55:24.197Z,100198.36
2017-11-30T23:57:51.748Z,100198.66
